Archival Weather

Chicago O'Hare International

Chicago, Illinois (KORD)

Report from: Saturday, March 18, 2023 6:00 AM CDT
Current time: Saturday, March 2, 2024 3:25 AM CST

Current weather – Weather history – Daily summaries
Weather forecast

Present weatherLight snow
Temperature-10.0°C (14.0°F)
Wind chill-17.9°C (-0.2°F)
Dew point-15.6°C (3.9°F)
Winds 11 kts (5.7 m/s, 12.7 mph) West (280°)
Wind gusts 19 kts (9.8 m/s, 21.9 mph)
Visibility9 mi. (14.5 km)
Clouds Scattered clouds 2,400 ft. (732 m)
Ceiling: Overcast 3,000 ft. (914 m)
Altimeter29.92 in.Hg (1013 mB)
PrecipitiationTrace
Precip. events Snow began 10:59 AM
Relative humidity63 %
Density altitude-3,091 ft. (-942 m)
Remarks Automated weather observing station with precipitation discriminator
Flight conditions Visual Meteorological Conditions
Raw dataKORD 181100Z 28011G19KT 9SM -SN SCT024 OVC030 M10/M16 A2992 RMK AO2 SNB1059 P0000 T11001156
An error has occurred. This application may no longer respond until reloaded. Reload 🗙